Sparwood, Canada
Current Conditions -  °F | °C
As of 8:00 AM on Monday 24 Nov 2014 (Local Time) from CWSW Reporting Station
Few Clouds Few Clouds  
Wind Chill: -9°   Ceiling: Unl
Heat Index: -9°   Visibility: 20mi
Dew Point: -11°   Wind: 2mph
Humidity: 86%   Direction: NA
Pressure: 30.13"   Gusts: NA
Location:  49.72°N, 114.89°W
Report Text: CWSW 241500Z VRB02KT 20SM FEW050 M09/M11 A3013 RMK SC1 SLP261
Loading
Personal Weather Stations






























Interactive Weather Map New forecast layout! Learn more

10-Day Weather Forecast

Advertisements
Track Severe Weather on mobile